createdAt,value
2018-06-27T00:01:05.496Z,65.27
2018-06-27T00:03:34.181Z,65.36
2018-06-27T00:06:02.953Z,64.71
2018-06-27T00:08:31.582Z,64.28
2018-06-27T00:11:00.248Z,64.31
2018-06-27T00:13:28.965Z,63.94
2018-06-27T00:15:57.577Z,64.88
2018-06-27T00:18:26.185Z,64.80
2018-06-27T00:20:55.113Z,64.71
2018-06-27T00:23:23.790Z,64.39
2018-06-27T00:25:52.449Z,64.45
2018-06-27T00:28:21.225Z,64.43
2018-06-27T00:30:49.919Z,64.67
2018-06-27T00:33:18.680Z,64.74
2018-06-27T00:35:47.502Z,64.35
2018-06-27T00:38:17.877Z,64.31
2018-06-27T00:40:46.921Z,64.64
2018-06-27T00:43:16.529Z,65.02
2018-06-27T00:45:45.419Z,64.48
2018-06-27T00:48:14.168Z,64.94
2018-06-27T00:50:42.747Z,64.80
2018-06-27T00:53:11.393Z,64.53
2018-06-27T00:55:40.078Z,65.20
2018-06-27T00:58:08.748Z,64.92
2018-06-27T01:00:37.421Z,64.85
2018-06-27T01:03:06.200Z,64.83
2018-06-27T01:05:34.993Z,64.44
2018-06-27T01:08:03.822Z,64.35
2018-06-27T01:10:32.390Z,64.26
2018-06-27T01:13:01.039Z,64.55
2018-06-27T01:15:29.637Z,64.87
2018-06-27T01:17:58.696Z,64.62
2018-06-27T01:20:27.823Z,64.92
2018-06-27T01:22:56.490Z,65.07
2018-06-27T01:25:25.249Z,65.02
2018-06-27T01:27:53.858Z,64.81
2018-06-27T01:30:22.489Z,65.58
2018-06-27T01:32:51.428Z,65.33
2018-06-27T01:35:20.112Z,65.02
2018-06-27T01:37:49.058Z,65.43
2018-06-27T01:40:17.650Z,65.26
2018-06-27T01:42:46.257Z,65.28
2018-06-27T01:45:14.901Z,65.17
2018-06-27T01:47:43.553Z,65.29
2018-06-27T01:50:12.339Z,64.91
2018-06-27T01:52:41.018Z,65.68
2018-06-27T01:55:09.555Z,65.58
2018-06-27T01:57:38.271Z,65.62
2018-06-27T02:00:08.183Z,65.77
2018-06-27T02:02:37.898Z,66.04
2018-06-27T02:05:06.494Z,66.68
2018-06-27T02:07:35.209Z,66.11
2018-06-27T02:10:03.853Z,66.11
2018-06-27T02:12:32.469Z,66.81
2018-06-27T02:15:01.150Z,66.60
2018-06-27T02:17:29.845Z,67.13
2018-06-27T02:19:58.540Z,67.29
2018-06-27T02:22:27.272Z,67.32
2018-06-27T02:24:55.876Z,67.41
2018-06-27T02:27:24.830Z,67.45
2018-06-27T02:29:53.644Z,67.49
2018-06-27T02:32:22.447Z,67.15
2018-06-27T02:34:51.239Z,67.51
2018-06-27T02:37:20.124Z,67.60
2018-06-27T02:39:49.137Z,67.44
2018-06-27T02:42:17.826Z,67.06
2018-06-27T02:44:46.471Z,67.73
2018-06-27T02:47:15.189Z,68.63
2018-06-27T02:49:43.890Z,68.47
2018-06-27T02:52:12.638Z,68.02
2018-06-27T02:54:41.469Z,68.51
2018-06-27T02:57:10.177Z,69.02
2018-06-27T02:59:38.783Z,68.65
2018-06-27T03:02:07.429Z,68.28
2018-06-27T03:04:36.163Z,68.37
2018-06-27T03:07:04.850Z,68.51
2018-06-27T03:09:33.629Z,68.80
2018-06-27T03:12:02.252Z,68.55
2018-06-27T03:14:30.950Z,68.67
2018-06-27T03:16:59.593Z,68.72
2018-06-27T03:19:28.483Z,68.73
2018-06-27T03:21:57.261Z,68.53
2018-06-27T03:24:25.932Z,68.32
2018-06-27T03:26:54.659Z,68.44
2018-06-27T03:29:23.344Z,68.14
2018-06-27T03:31:52.000Z,67.86
2018-06-27T03:34:20.760Z,67.87
2018-06-27T03:36:49.428Z,67.78
2018-06-27T03:39:18.085Z,68.15
2018-06-27T03:41:46.788Z,67.51
2018-06-27T03:44:15.476Z,67.59
2018-06-27T03:46:44.214Z,67.89
2018-06-27T03:49:12.847Z,67.95
2018-06-27T03:51:41.500Z,67.78
2018-06-27T03:54:10.369Z,67.80
2018-06-27T03:56:38.953Z,68.12
2018-06-27T03:59:07.779Z,67.99
2018-06-27T04:01:36.648Z,68.31
2018-06-27T04:04:05.651Z,68.39
2018-06-27T04:06:34.409Z,68.77
2018-06-27T04:09:03.237Z,68.73
2018-06-27T04:11:31.897Z,68.22
2018-06-27T04:14:00.612Z,68.31
2018-06-27T04:16:29.353Z,68.08
2018-06-27T04:18:58.262Z,68.38
2018-06-27T04:21:26.981Z,68.66
2018-06-27T04:23:55.609Z,68.42
2018-06-27T04:26:24.353Z,69.28
2018-06-27T04:28:53.057Z,69.37
2018-06-27T04:31:21.830Z,69.63
2018-06-27T04:33:50.527Z,68.96
2018-06-27T04:36:19.164Z,68.43
2018-06-27T04:38:47.889Z,68.04
2018-06-27T04:41:16.620Z,67.42
2018-06-27T04:43:45.280Z,67.49
2018-06-27T04:46:14.005Z,67.42
2018-06-27T04:48:42.672Z,66.98
2018-06-27T04:51:11.423Z,66.97
2018-06-27T04:53:40.101Z,66.51
2018-06-27T04:56:08.936Z,66.63
2018-06-27T04:58:37.545Z,65.70
2018-06-27T05:01:06.125Z,65.11
2018-06-27T05:03:34.859Z,63.25
2018-06-27T05:06:03.485Z,62.07
2018-06-27T05:08:33.141Z,62.39
2018-06-27T05:11:01.692Z,62.88
2018-06-27T05:13:30.294Z,63.07
2018-06-27T05:15:59.093Z,63.80
2018-06-27T05:18:28.242Z,63.21
2018-06-27T05:20:56.798Z,63.32
2018-06-27T05:23:25.444Z,64.17
2018-06-27T05:25:54.124Z,63.15
2018-06-27T05:28:22.660Z,62.32
2018-06-27T05:30:51.905Z,62.95
2018-06-27T05:33:21.039Z,62.62
2018-06-27T05:35:49.738Z,62.66
2018-06-27T05:38:18.294Z,62.29
2018-06-27T05:40:46.924Z,61.25
2018-06-27T05:43:15.485Z,61.13
2018-06-27T05:45:44.041Z,60.84
2018-06-27T05:48:12.770Z,60.25
2018-06-27T05:50:41.397Z,59.77
2018-06-27T05:53:10.022Z,59.63
2018-06-27T05:55:38.605Z,58.54
2018-06-27T05:58:07.285Z,55.71
2018-06-27T06:00:35.890Z,55.95
2018-06-27T06:03:04.502Z,56.64
2018-06-27T06:05:33.165Z,56.91
2018-06-27T06:08:01.787Z,56.97
2018-06-27T06:10:30.396Z,56.55
2018-06-27T06:12:59.136Z,54.77
2018-06-27T06:15:27.729Z,57.28
2018-06-27T06:17:56.277Z,57.26
2018-06-27T06:20:24.901Z,56.91
2018-06-27T06:22:53.452Z,56.43
2018-06-27T06:25:22.103Z,56.22
2018-06-27T06:27:50.661Z,56.57
2018-06-27T06:30:19.370Z,56.98
2018-06-27T06:32:48.882Z,57.61
2018-06-27T06:35:17.568Z,58.36
2018-06-27T06:37:46.143Z,56.99
2018-06-27T06:40:14.790Z,57.30
2018-06-27T06:42:43.413Z,57.35
2018-06-27T06:45:11.998Z,56.93
2018-06-27T06:47:40.609Z,56.26
2018-06-27T06:50:09.258Z,56.88
2018-06-27T06:52:37.852Z,54.21
2018-06-27T06:55:06.802Z,55.60
2018-06-27T06:57:35.553Z,56.00
2018-06-27T07:00:04.161Z,56.29
2018-06-27T07:02:32.803Z,56.31
2018-06-27T07:05:01.456Z,55.23
2018-06-27T07:07:30.017Z,53.44
2018-06-27T07:09:58.574Z,51.99
2018-06-27T07:12:27.144Z,49.01
2018-06-27T07:14:55.729Z,51.17
2018-06-27T07:17:24.352Z,49.86
2018-06-27T07:19:53.006Z,50.31
2018-06-27T07:22:21.585Z,49.89
2018-06-27T07:24:50.182Z,50.19
2018-06-27T07:27:18.761Z,52.84
2018-06-27T07:29:47.307Z,51.14
2018-06-27T07:32:15.922Z,52.20
2018-06-27T07:34:44.816Z,52.49
2018-06-27T07:37:13.401Z,53.22
2018-06-27T07:39:41.963Z,53.66
2018-06-27T07:42:10.605Z,53.62
2018-06-27T07:44:39.423Z,53.19
2018-06-27T07:47:08.292Z,53.17
2018-06-27T07:49:36.897Z,51.85
2018-06-27T07:52:05.772Z,50.71
2018-06-27T07:54:41.358Z,50.52
2018-06-27T07:57:12.450Z,51.83
2018-06-27T07:59:41.234Z,47.15
2018-06-27T08:02:09.928Z,48.42
2018-06-27T08:04:38.548Z,48.42
2018-06-27T08:07:07.234Z,50.74
2018-06-27T08:09:35.924Z,47.52
2018-06-27T08:12:04.599Z,48.90
2018-06-27T08:14:39.719Z,47.19
2018-06-27T08:17:08.315Z,50.16
2018-06-27T08:19:36.946Z,47.79
2018-06-27T08:22:06.103Z,49.51
2018-06-27T08:24:34.953Z,48.07
2018-06-27T08:27:03.545Z,45.49
2018-06-27T08:29:32.121Z,43.77
2018-06-27T08:34:28.277Z,43.25
2018-06-27T08:36:56.976Z,43.80
2018-06-27T08:39:25.545Z,44.93
2018-06-27T08:41:54.225Z,44.08
2018-06-27T08:44:22.990Z,45.45
2018-06-27T08:46:51.719Z,43.44
2018-06-27T08:49:20.359Z,43.32
2018-06-27T08:51:48.976Z,42.45
2018-06-27T08:54:17.598Z,41.39
2018-06-27T08:56:46.193Z,42.38
2018-06-27T08:59:14.850Z,44.23
2018-06-27T09:01:43.410Z,43.73
2018-06-27T09:04:12.107Z,40.08
2018-06-27T09:06:40.783Z,42.07
2018-06-27T09:09:11.465Z,41.10
2018-06-27T09:11:40.302Z,41.70
2018-06-27T09:14:09.106Z,40.07
2018-06-27T09:16:37.666Z,42.87
2018-06-27T09:19:06.885Z,41.72
2018-06-27T09:21:35.779Z,41.37
2018-06-27T09:24:04.539Z,39.30
2018-06-27T09:26:33.253Z,38.32
2018-06-27T09:29:01.873Z,36.52
2018-06-27T09:31:30.520Z,39.72
2018-06-27T09:33:59.348Z,39.43
2018-06-27T09:36:28.195Z,40.55
2018-06-27T09:38:57.814Z,41.11
2018-06-27T09:41:26.487Z,38.81
2018-06-27T09:43:55.357Z,37.80
2018-06-27T09:46:24.168Z,38.80
2018-06-27T09:48:52.988Z,37.67
2018-06-27T09:51:21.735Z,38.50
2018-06-27T09:53:50.479Z,36.06
2018-06-27T09:56:19.042Z,36.94
2018-06-27T09:58:47.796Z,35.54
2018-06-27T10:01:16.455Z,34.30
2018-06-27T10:03:45.521Z,36.28
2018-06-27T10:06:14.090Z,36.22
2018-06-27T10:08:42.740Z,35.07
2018-06-27T10:11:11.294Z,36.57
2018-06-27T10:13:40.012Z,36.68
2018-06-27T10:16:08.625Z,36.24
2018-06-27T10:18:37.378Z,35.43
2018-06-27T10:21:06.125Z,36.55
2018-06-27T10:23:34.963Z,35.49
2018-06-27T10:26:03.573Z,36.58
2018-06-27T10:28:34.379Z,35.14
2018-06-27T10:31:02.965Z,34.99
2018-06-27T10:33:31.620Z,34.59
2018-06-27T10:36:00.439Z,34.88
2018-06-27T10:38:29.193Z,35.92
2018-06-27T10:40:57.894Z,36.32
2018-06-27T10:43:26.587Z,36.03
2018-06-27T10:45:55.287Z,35.43
2018-06-27T10:48:24.384Z,34.96
2018-06-27T10:50:53.029Z,36.67
2018-06-27T10:53:21.569Z,36.58
2018-06-27T10:55:50.285Z,36.52
2018-06-27T10:58:18.931Z,37.23
2018-06-27T11:00:47.590Z,36.53
2018-06-27T11:03:16.149Z,37.80
2018-06-27T11:05:44.855Z,36.98
2018-06-27T11:08:13.580Z,38.10
2018-06-27T11:10:42.905Z,36.53
2018-06-27T11:13:11.601Z,35.38
2018-06-27T11:15:40.240Z,34.38
2018-06-27T11:18:08.869Z,35.93
2018-06-27T11:20:37.582Z,36.35
2018-06-27T11:23:06.181Z,35.05
2018-06-27T11:25:34.721Z,36.95
2018-06-27T11:28:03.444Z,35.28
2018-06-27T11:30:32.057Z,35.45
2018-06-27T11:33:00.700Z,35.91
2018-06-27T11:35:29.465Z,33.72
2018-06-27T11:37:58.129Z,34.64
2018-06-27T11:40:26.851Z,32.64
2018-06-27T11:42:55.645Z,35.04
2018-06-27T11:45:24.435Z,33.59
2018-06-27T11:47:53.053Z,37.29
2018-06-27T11:50:21.990Z,35.54
2018-06-27T11:52:50.637Z,33.79
2018-06-27T11:55:19.845Z,34.60
2018-06-27T11:57:48.415Z,33.59
2018-06-27T12:00:17.370Z,33.40
2018-06-27T12:02:46.238Z,31.70
2018-06-27T12:05:15.150Z,32.26
2018-06-27T12:07:44.039Z,30.27
2018-06-27T12:10:12.822Z,32.69
2018-06-27T12:12:41.673Z,31.66
2018-06-27T12:15:10.416Z,32.37
2018-06-27T12:17:39.393Z,32.46
2018-06-27T12:20:08.199Z,34.34
2018-06-27T12:22:36.842Z,35.05
2018-06-27T12:25:05.585Z,37.23
2018-06-27T12:27:34.798Z,36.45
2018-06-27T12:30:03.842Z,38.19
2018-06-27T12:32:32.849Z,37.91
2018-06-27T12:35:01.825Z,39.77
2018-06-27T12:37:30.509Z,38.48
2018-06-27T12:39:59.510Z,37.74
2018-06-27T12:42:28.474Z,35.94
2018-06-27T12:44:57.394Z,33.73
2018-06-27T12:47:26.260Z,33.65
2018-06-27T12:49:55.093Z,35.27
2018-06-27T12:52:23.829Z,35.33
2018-06-27T12:54:56.736Z,36.52
2018-06-27T12:57:25.833Z,35.49
2018-06-27T12:59:54.723Z,35.19
2018-06-27T13:02:23.612Z,34.08
2018-06-27T13:04:52.414Z,34.34
2018-06-27T13:07:21.437Z,36.57
2018-06-27T13:09:50.183Z,34.97
2018-06-27T13:12:18.960Z,34.66
2018-06-27T13:14:47.617Z,34.91
2018-06-27T13:17:16.253Z,33.38
2018-06-27T13:19:44.950Z,33.63
2018-06-27T13:22:13.654Z,34.75
2018-06-27T13:24:42.452Z,32.59
2018-06-27T13:27:11.224Z,32.52
2018-06-27T13:29:39.965Z,32.07
2018-06-27T13:32:08.733Z,31.30
2018-06-27T13:34:37.332Z,33.50
2018-06-27T13:37:06.324Z,33.21
2018-06-27T13:39:35.021Z,33.79
2018-06-27T13:42:03.713Z,32.52
2018-06-27T13:44:33.598Z,33.83
2018-06-27T13:47:02.674Z,33.26
2018-06-27T13:49:31.442Z,32.91
2018-06-27T13:52:00.186Z,33.63
2018-06-27T13:54:29.529Z,34.08
2018-06-27T13:56:59.394Z,33.72
2018-06-27T13:59:28.203Z,35.61
2018-06-27T14:01:56.845Z,36.13
2018-06-27T14:04:25.684Z,36.43
2018-06-27T14:06:55.447Z,35.76
2018-06-27T14:09:24.157Z,36.00
2018-06-27T14:11:52.939Z,35.48
2018-06-27T14:14:21.590Z,35.15
2018-06-27T14:16:50.593Z,34.95
2018-06-27T14:19:19.241Z,33.35
2018-06-27T14:21:48.089Z,34.89
2018-06-27T14:24:16.799Z,33.04
2018-06-27T14:26:45.477Z,34.48
2018-06-27T14:29:14.119Z,34.15
2018-06-27T14:31:42.871Z,34.82
2018-06-27T14:34:11.518Z,35.13
2018-06-27T14:36:40.231Z,35.70
2018-06-27T14:39:10.193Z,36.71
2018-06-27T14:41:39.312Z,36.46
2018-06-27T14:44:08.091Z,36.68
2018-06-27T14:46:37.689Z,36.30
2018-06-27T14:49:06.452Z,37.19
2018-06-27T14:51:35.653Z,37.62
2018-06-27T14:54:04.442Z,37.78
2018-06-27T14:56:33.266Z,38.74
2018-06-27T14:59:01.933Z,38.98
2018-06-27T15:01:30.713Z,36.48
2018-06-27T15:03:59.622Z,35.06
2018-06-27T15:06:28.358Z,35.03
2018-06-27T15:08:57.109Z,36.24
2018-06-27T15:11:26.073Z,36.70
2018-06-27T15:13:54.786Z,37.09
2018-06-27T15:16:23.568Z,37.68
2018-06-27T15:18:52.226Z,36.57
2018-06-27T15:21:20.990Z,38.61
2018-06-27T15:23:49.711Z,37.85
2018-06-27T15:26:18.434Z,37.59
2018-06-27T15:28:47.221Z,36.53
2018-06-27T15:31:15.891Z,36.26
2018-06-27T15:33:44.621Z,36.51
2018-06-27T15:36:13.381Z,35.49
2018-06-27T15:38:42.351Z,35.97
2018-06-27T15:41:11.046Z,36.86
2018-06-27T15:43:39.720Z,37.70
2018-06-27T15:46:08.528Z,38.14
2018-06-27T15:48:37.365Z,37.03
2018-06-27T15:51:06.173Z,37.62
2018-06-27T15:53:34.838Z,38.72
2018-06-27T15:56:03.645Z,39.41
2018-06-27T15:58:32.382Z,38.85
2018-06-27T16:01:01.108Z,40.42
2018-06-27T16:03:29.733Z,40.43
2018-06-27T16:05:58.403Z,40.83
2018-06-27T16:08:27.246Z,39.08
2018-06-27T16:10:55.941Z,38.10
2018-06-27T16:13:24.676Z,38.42
2018-06-27T16:15:53.328Z,39.72
2018-06-27T16:18:22.009Z,39.01
2018-06-27T16:20:50.680Z,39.61
2018-06-27T16:23:19.491Z,38.75
2018-06-27T16:25:48.217Z,38.04
2018-06-27T16:28:16.893Z,37.43
2018-06-27T16:30:45.613Z,38.12
2018-06-27T16:33:14.345Z,35.85
2018-06-27T16:35:43.380Z,36.92
2018-06-27T16:38:12.308Z,37.60
2018-06-27T16:40:41.365Z,37.81
2018-06-27T16:43:10.074Z,38.82
2018-06-27T16:45:38.893Z,38.61
2018-06-27T16:48:07.585Z,39.45
2018-06-27T16:50:37.348Z,40.60
2018-06-27T16:53:06.429Z,39.48
2018-06-27T16:55:35.270Z,40.64
2018-06-27T16:58:04.479Z,40.43
2018-06-27T17:00:33.165Z,40.32
2018-06-27T17:03:02.102Z,41.50
2018-06-27T17:05:30.926Z,40.62
2018-06-27T17:07:59.730Z,41.70
2018-06-27T17:10:29.065Z,41.55
2018-06-27T17:12:57.912Z,40.53
2018-06-27T17:15:28.413Z,40.38
2018-06-27T17:17:57.149Z,40.47
2018-06-27T17:20:25.909Z,40.45
2018-06-27T17:22:54.785Z,40.57
2018-06-27T17:25:23.490Z,39.89
2018-06-27T17:27:52.337Z,41.27
2018-06-27T17:30:21.377Z,39.85
2018-06-27T17:32:50.157Z,39.79
2018-06-27T17:35:19.363Z,39.96
2018-06-27T17:37:50.608Z,39.86
2018-06-27T17:40:20.398Z,40.75
2018-06-27T17:42:49.138Z,40.83
2018-06-27T17:45:17.976Z,40.76
2018-06-27T17:47:47.540Z,40.82
2018-06-27T17:50:17.160Z,40.16
2018-06-27T17:52:47.020Z,40.73
2018-06-27T17:55:16.774Z,40.17
2018-06-27T17:57:46.437Z,40.39
2018-06-27T18:00:16.043Z,39.84
2018-06-27T18:02:45.679Z,39.94
2018-06-27T18:05:15.184Z,40.28
2018-06-27T18:07:44.717Z,41.15
2018-06-27T18:10:14.198Z,40.58
2018-06-27T18:12:44.697Z,40.21
2018-06-27T18:15:14.326Z,40.65
2018-06-27T18:17:43.858Z,41.50
2018-06-27T18:20:13.527Z,40.73
2018-06-27T18:22:43.105Z,41.69
2018-06-27T18:25:15.045Z,41.83
2018-06-27T18:27:45.477Z,41.02
2018-06-27T18:30:15.283Z,42.42
2018-06-27T18:32:44.923Z,41.68
2018-06-27T18:35:14.862Z,42.09
2018-06-27T18:37:44.266Z,41.33
2018-06-27T18:40:13.791Z,41.59
2018-06-27T18:42:43.361Z,41.75
2018-06-27T18:45:13.076Z,42.43
2018-06-27T18:47:42.498Z,42.82
2018-06-27T18:50:12.074Z,42.28
2018-06-27T18:52:41.628Z,42.42
2018-06-27T18:57:39.953Z,42.86
2018-06-27T19:00:10.840Z,42.25
2018-06-27T19:02:40.518Z,42.67
2018-06-27T19:05:10.125Z,43.84
2018-06-27T19:07:39.846Z,43.38
2018-06-27T19:10:09.354Z,44.17
2018-06-27T19:12:38.936Z,43.63
2018-06-27T19:15:08.545Z,43.65
2018-06-27T19:17:38.222Z,44.15
2018-06-27T19:20:07.712Z,43.64
2018-06-27T19:22:37.682Z,44.14
2018-06-27T19:25:07.326Z,45.01
2018-06-27T19:27:37.030Z,44.68
2018-06-27T19:30:07.133Z,44.62
2018-06-27T19:32:36.708Z,45.03
2018-06-27T19:35:06.714Z,44.82
2018-06-27T19:37:36.225Z,46.93
2018-06-27T19:40:06.163Z,47.53
2018-06-27T19:42:35.558Z,48.23
2018-06-27T19:45:05.661Z,47.99
2018-06-27T19:47:35.230Z,47.16
2018-06-27T19:50:05.730Z,48.44
2018-06-27T19:52:35.218Z,49.58
2018-06-27T19:55:04.955Z,49.62
2018-06-27T19:57:35.129Z,49.82
2018-06-27T20:00:04.938Z,49.30
2018-06-27T20:02:34.405Z,49.61
2018-06-27T20:05:03.811Z,49.82
2018-06-27T20:07:33.253Z,50.20
2018-06-27T20:10:03.925Z,50.83
2018-06-27T20:12:33.558Z,51.09
2018-06-27T20:15:03.323Z,51.77
2018-06-27T20:17:33.102Z,52.51
2018-06-27T20:20:09.365Z,52.79
2018-06-27T20:22:44.158Z,51.99
2018-06-27T20:25:19.057Z,52.13
2018-06-27T20:27:54.015Z,51.93
2018-06-27T20:30:28.865Z,51.96
2018-06-27T20:33:03.936Z,51.63
2018-06-27T20:35:38.780Z,51.87
2018-06-27T20:38:07.609Z,52.04
2018-06-27T20:40:36.408Z,52.66
2018-06-27T20:43:05.500Z,53.89
2018-06-27T20:45:34.253Z,54.05
2018-06-27T20:48:03.019Z,54.29
2018-06-27T20:50:31.695Z,53.43
2018-06-27T20:53:01.406Z,54.18
2018-06-27T20:55:30.239Z,54.52
2018-06-27T20:57:59.397Z,55.14
2018-06-27T21:00:28.537Z,55.46
2018-06-27T21:02:57.318Z,55.40
2018-06-27T21:05:26.358Z,55.46
2018-06-27T21:07:55.060Z,54.80
2018-06-27T21:10:23.716Z,55.24
2018-06-27T21:12:52.526Z,55.42
2018-06-27T21:15:21.186Z,55.38
2018-06-27T21:17:49.821Z,56.32
2018-06-27T21:20:18.782Z,55.78
2018-06-27T21:22:47.478Z,55.88
2018-06-27T21:25:16.110Z,55.49
2018-06-27T21:27:44.777Z,56.67
2018-06-27T21:30:13.397Z,56.18
2018-06-27T21:32:42.010Z,56.52
2018-06-27T21:35:10.777Z,55.98
2018-06-27T21:37:39.382Z,55.24
2018-06-27T21:40:07.990Z,55.98
2018-06-27T21:42:36.635Z,56.31
2018-06-27T21:45:05.392Z,55.95
2018-06-27T21:47:34.023Z,56.22
2018-06-27T21:50:02.796Z,56.11
2018-06-27T21:52:32.329Z,56.52
2018-06-27T21:55:00.915Z,56.61
2018-06-27T21:57:29.516Z,57.17
2018-06-27T21:59:58.117Z,58.59
2018-06-27T22:02:26.926Z,59.14
2018-06-27T22:04:55.530Z,58.86
2018-06-27T22:07:24.237Z,59.56
2018-06-27T22:09:52.845Z,58.91
2018-06-27T22:12:21.508Z,58.71
2018-06-27T22:14:50.276Z,58.19
2018-06-27T22:17:18.885Z,57.83
2018-06-27T22:19:47.517Z,57.43
2018-06-27T22:22:16.078Z,58.11
2018-06-27T22:24:44.735Z,58.24
2018-06-27T22:27:13.364Z,57.61
2018-06-27T22:29:41.971Z,57.28
2018-06-27T22:32:10.554Z,58.28
2018-06-27T22:34:39.221Z,57.79
2018-06-27T22:37:07.877Z,58.31
2018-06-27T22:39:36.514Z,57.68
2018-06-27T22:42:05.179Z,57.73
2018-06-27T22:44:33.745Z,57.42
2018-06-27T22:47:02.525Z,57.46
2018-06-27T22:49:31.481Z,58.00
2018-06-27T22:52:00.149Z,58.56
2018-06-27T22:54:28.729Z,59.00
2018-06-27T22:56:57.451Z,58.97
2018-06-27T22:59:26.097Z,58.94
2018-06-27T23:01:54.742Z,58.13
2018-06-27T23:04:23.677Z,58.55
2018-06-27T23:06:55.378Z,58.32
2018-06-27T23:09:24.208Z,57.99
2018-06-27T23:11:52.886Z,57.81
2018-06-27T23:14:21.497Z,58.08
2018-06-27T23:16:50.130Z,58.34
2018-06-27T23:19:18.745Z,58.86
2018-06-27T23:21:47.389Z,58.23
2018-06-27T23:24:16.273Z,58.67
2018-06-27T23:26:44.833Z,59.14
2018-06-27T23:29:13.501Z,58.82
2018-06-27T23:31:42.090Z,60.27
2018-06-27T23:34:10.709Z,59.87
2018-06-27T23:36:39.377Z,60.82
2018-06-27T23:39:11.046Z,60.36
2018-06-27T23:41:39.765Z,60.94
2018-06-27T23:44:08.421Z,61.25
2018-06-27T23:46:37.522Z,60.44
2018-06-27T23:49:06.538Z,60.45
2018-06-27T23:51:35.205Z,60.41
2018-06-27T23:54:03.904Z,60.81
2018-06-27T23:56:32.597Z,61.08
2018-06-27T23:59:07.952Z,60.78
